Time;durP1;ratioP1;P1;durP2;ratioP2;P2;SDS_P1;SDS_P2;PMS_P1;PMS_P2;Temp;Humidity;BMP_temperature;BMP_pressure;BME280_temperature;BME280_humidity;BME280_pressure;Samples;Min_cycle;Max_cycle;Signal;HPM_P1;HPM_P2
2022/04/07 00:01:17;;;;;;;6.00;1.87;;;11.10;99.90;;;;;;6225030;23;20153;-94
2022/04/07 00:03:43;;;;;;;2.57;1.20;;;11.10;99.90;;;;;;6225869;23;20211;-93
2022/04/07 00:06:12;;;;;;;5.00;1.60;;;11.10;99.90;;;;;;6231906;23;20183;-96
2022/04/07 00:08:38;;;;;;;4.27;1.53;;;11.10;99.90;;;;;;6238189;23;20145;-95
2022/04/07 00:11:13;;;;;;;7.33;2.90;;;11.10;99.90;;;;;;6248353;23;20155;-88
2022/04/07 00:13:38;;;;;;;6.50;2.00;;;11.20;99.90;;;;;;6246600;22;20133;-89
2022/04/07 00:16:04;;;;;;;3.50;1.63;;;11.20;99.90;;;;;;6241288;23;20162;-93
2022/04/07 00:18:31;;;;;;;2.53;1.20;;;11.20;99.90;;;;;;6239567;23;20147;-88
2022/04/07 00:20:59;;;;;;;3.63;1.37;;;11.10;99.90;;;;;;6219550;23;20533;-88
2022/04/07 00:23:25;;;;;;;5.37;1.40;;;11.10;99.90;;;;;;6220280;23;20174;-88
2022/04/07 00:25:51;;;;;;;5.77;1.50;;;11.10;99.90;;;;;;6220060;23;20646;-88
2022/04/07 00:28:17;;;;;;;4.87;1.70;;;11.10;99.90;;;;;;6220221;23;20167;-88
2022/04/07 00:30:44;;;;;;;8.27;1.50;;;11.20;99.90;;;;;;6219997;23;20575;-88
2022/04/07 00:33:10;;;;;;;2.83;1.50;;;11.20;99.90;;;;;;6220723;23;20143;-88
2022/04/07 00:35:36;;;;;;;2.50;1.40;;;11.30;99.90;;;;;;6220086;23;20205;-88
2022/04/07 00:38:03;;;;;;;5.93;1.50;;;11.20;99.90;;;;;;6220191;23;20166;-88
2022/04/07 00:40:29;;;;;;;4.97;1.40;;;11.10;99.90;;;;;;6220305;23;20198;-88
2022/04/07 00:42:55;;;;;;;4.70;1.40;;;11.20;99.90;;;;;;6219877;23;20155;-88
2022/04/07 00:45:23;;;;;;;5.00;1.53;;;11.10;99.90;;;;;;6220449;23;20646;-88
2022/04/07 00:47:50;;;;;;;3.80;1.30;;;11.20;99.90;;;;;;6219816;23;20183;-88
2022/04/07 00:50:17;;;;;;;5.63;1.50;;;11.20;99.90;;;;;;6219579;23;20155;-87
2022/04/07 00:52:56;;;;;;;6.70;1.47;;;11.20;99.90;;;;;;6220017;23;20568;-87
2022/04/07 00:55:24;;;;;;;7.50;1.67;;;11.20;99.90;;;;;;6220071;23;20147;-87
2022/04/07 00:57:50;;;;;;;6.73;1.40;;;11.30;99.90;;;;;;6220248;23;20186;-89
2022/04/07 01:00:16;;;;;;;3.83;1.53;;;11.30;99.90;;;;;;6219944;23;20163;-87
2022/04/07 01:02:42;;;;;;;4.63;2.00;;;11.40;99.90;;;;;;6220012;23;20151;-89
2022/04/07 01:05:09;;;;;;;3.27;1.33;;;11.40;99.90;;;;;;6220511;23;20155;-87
2022/04/07 01:07:37;;;;;;;6.80;1.70;;;11.40;99.90;;;;;;6219020;23;20155;-87
2022/04/07 01:10:04;;;;;;;5.10;1.73;;;11.50;99.90;;;;;;6220390;23;20162;-87
2022/04/07 01:12:31;;;;;;;6.50;1.97;;;11.40;99.90;;;;;;6219792;23;20147;-87
2022/04/07 01:15:01;;;;;;;4.07;1.70;;;11.40;99.90;;;;;;6220359;23;20156;-87
2022/04/07 01:17:28;;;;;;;5.93;1.80;;;11.40;99.90;;;;;;6218992;23;20252;-87
2022/04/07 01:19:54;;;;;;;2.20;1.50;;;11.30;99.90;;;;;;6220088;23;20209;-87
2022/04/07 01:22:20;;;;;;;5.83;1.80;;;11.30;99.90;;;;;;6219930;23;20202;-87
2022/04/07 01:24:49;;;;;;;5.37;1.80;;;11.40;99.90;;;;;;6219836;23;20151;-87
2022/04/07 01:27:17;;;;;;;2.93;1.53;;;11.50;99.90;;;;;;6219790;23;20191;-87
2022/04/07 01:29:43;;;;;;;4.10;2.10;;;11.50;99.90;;;;;;6220013;23;20175;-87
2022/04/07 01:32:40;;;;;;;2.20;1.53;;;11.40;99.90;;;;;;6218985;23;20155;-87
2022/04/07 01:35:06;;;;;;;6.57;1.73;;;11.40;99.90;;;;;;6241986;23;20151;-86
2022/04/07 01:37:32;;;;;;;4.77;2.27;;;11.40;99.90;;;;;;6218664;23;20154;-88
2022/04/07 01:39:59;;;;;;;3.97;2.10;;;11.40;99.90;;;;;;6217829;23;20151;-87
2022/04/07 01:42:26;;;;;;;5.93;2.30;;;11.30;99.90;;;;;;6221136;23;20159;-87
2022/04/07 01:44:54;;;;;;;4.77;2.33;;;11.30;99.90;;;;;;6221733;23;20152;-86
2022/04/07 01:47:22;;;;;;;5.00;1.67;;;11.20;99.90;;;;;;6224923;23;20155;-86
2022/04/07 01:49:58;;;;;;;7.43;1.80;;;11.30;99.90;;;;;;6226279;23;20594;-87
2022/04/07 01:52:25;;;;;;;4.30;2.07;;;11.30;99.90;;;;;;6224428;23;20261;-87
2022/04/07 01:54:52;;;;;;;6.07;2.17;;;11.30;99.90;;;;;;6223544;23;20490;-86
2022/04/07 01:57:22;;;;;;;6.57;2.20;;;11.30;99.90;;;;;;6221085;23;20576;-87
2022/04/07 01:59:52;;;;;;;6.47;2.03;;;11.30;99.90;;;;;;6219404;23;20175;-87
2022/04/07 02:02:21;;;;;;;11.70;3.03;;;11.20;99.90;;;;;;6245804;23;20182;-87
2022/04/07 02:04:57;;;;;;;7.87;1.77;;;11.20;99.90;;;;;;6219079;23;20289;-87
2022/04/07 02:07:31;;;;;;;6.87;2.00;;;11.10;99.90;;;;;;6219849;23;20159;-86
2022/04/07 02:09:57;;;;;;;5.57;1.90;;;11.10;99.90;;;;;;6218985;23;20560;-87
2022/04/07 02:12:29;;;;;;;8.57;1.87;;;11.00;99.90;;;;;;6218866;23;20197;-86
2022/04/07 02:14:55;;;;;;;6.47;2.40;;;11.10;99.90;;;;;;6219402;23;20224;-87
2022/04/07 02:17:22;;;;;;;7.27;1.90;;;11.10;99.90;;;;;;6219116;23;20152;-86
2022/04/07 02:19:49;;;;;;;4.70;1.87;;;11.10;99.90;;;;;;6219955;23;20179;-85
2022/04/07 02:22:15;;;;;;;5.10;1.60;;;11.00;99.90;;;;;;6219412;23;20155;-86
2022/04/07 02:24:41;;;;;;;5.17;1.70;;;11.10;99.90;;;;;;6218917;23;20234;-86
2022/04/07 02:27:08;;;;;;;5.67;2.10;;;11.20;99.90;;;;;;6219592;23;20623;-87
2022/04/07 02:29:36;;;;;;;5.70;1.90;;;11.10;99.90;;;;;;6219219;23;20162;-86
2022/04/07 02:32:02;;;;;;;5.33;1.80;;;11.00;99.90;;;;;;6218689;23;20212;-87
2022/04/07 02:34:28;;;;;;;4.33;1.20;;;11.10;99.90;;;;;;6219565;23;20148;-87
2022/04/07 02:36:54;;;;;;;5.17;1.40;;;11.10;99.90;;;;;;6219354;23;20163;-86
2022/04/07 02:39:20;;;;;;;4.83;2.00;;;11.20;99.90;;;;;;6219666;23;20452;-87
2022/04/07 02:41:45;;;;;;;6.23;1.63;;;11.20;99.90;;;;;;6219548;23;20155;-87
2022/04/07 02:44:11;;;;;;;5.37;1.73;;;11.20;99.90;;;;;;6218739;23;20594;-87
2022/04/07 02:46:37;;;;;;;4.23;1.97;;;11.20;99.90;;;;;;6219228;23;20650;-87
2022/04/07 02:49:04;;;;;;;4.07;1.87;;;11.20;99.90;;;;;;6219379;23;20268;-90
2022/04/07 02:51:31;;;;;;;5.23;1.80;;;11.20;99.90;;;;;;6219071;23;20206;-87
2022/04/07 02:54:00;;;;;;;3.13;1.70;;;11.20;99.90;;;;;;6219217;23;20155;-87
2022/04/07 02:56:28;;;;;;;3.87;1.67;;;11.30;99.90;;;;;;6219172;23;20489;-87
2022/04/07 02:58:55;;;;;;;5.37;1.30;;;11.20;99.90;;;;;;6218768;23;20600;-88
2022/04/07 03:01:21;;;;;;;4.77;1.67;;;11.30;99.90;;;;;;6219225;23;20206;-86
2022/04/07 03:03:48;;;;;;;2.67;1.70;;;11.20;99.90;;;;;;6219320;23;20280;-87
2022/04/07 03:06:14;;;;;;;3.13;1.40;;;11.20;99.90;;;;;;6219019;23;20214;-89
2022/04/07 03:08:40;;;;;;;2.63;1.10;;;11.20;99.90;;;;;;6218816;23;20159;-87
2022/04/07 03:11:09;;;;;;;2.43;1.00;;;11.20;99.90;;;;;;6219309;23;20151;-87
2022/04/07 03:13:36;;;;;;;3.30;1.30;;;11.20;99.90;;;;;;6218880;23;20162;-86
2022/04/07 03:16:03;;;;;;;3.43;1.13;;;11.30;99.90;;;;;;6219483;23;20147;-86
2022/04/07 03:18:29;;;;;;;5.27;1.20;;;11.20;99.90;;;;;;6219360;23;20201;-86
2022/04/07 03:20:55;;;;;;;2.77;1.30;;;11.20;99.90;;;;;;6219798;23;20159;-87
2022/04/07 03:23:20;;;;;;;4.63;1.83;;;11.20;99.90;;;;;;6219301;23;20149;-87
2022/04/07 03:25:46;;;;;;;3.13;1.20;;;11.20;99.90;;;;;;6218762;23;20185;-87
2022/04/07 03:28:12;;;;;;;2.77;1.00;;;11.10;99.90;;;;;;6218770;23;20495;-87
2022/04/07 03:30:39;;;;;;;2.93;1.37;;;11.20;99.90;;;;;;6219126;23;20154;-87
2022/04/07 03:33:06;;;;;;;2.17;1.30;;;11.20;99.90;;;;;;6218950;23;20494;-87
2022/04/07 03:35:32;;;;;;;3.40;1.37;;;11.10;99.90;;;;;;6219364;23;20150;-87
2022/04/07 03:37:58;;;;;;;1.57;1.20;;;10.90;99.90;;;;;;6218405;23;20155;-87
2022/04/07 03:40:27;;;;;;;1.73;1.50;;;10.90;99.90;;;;;;6218386;23;20218;-87
2022/04/07 03:42:53;;;;;;;5.30;1.40;;;10.90;99.90;;;;;;6218922;23;20162;-87
2022/04/07 03:45:20;;;;;;;3.97;1.50;;;10.90;99.90;;;;;;6218368;23;20186;-88
2022/04/07 03:47:46;;;;;;;4.70;2.07;;;10.80;99.90;;;;;;6219147;23;20151;-87
2022/04/07 03:50:12;;;;;;;2.83;1.23;;;10.70;99.90;;;;;;6218512;23;20205;-87
2022/04/07 03:52:38;;;;;;;2.67;1.60;;;10.60;99.90;;;;;;6219154;23;20478;-87
2022/04/07 03:55:05;;;;;;;5.77;1.80;;;10.50;99.90;;;;;;6219674;23;20577;-87
2022/04/07 03:57:31;;;;;;;4.27;1.57;;;10.50;99.90;;;;;;6220784;23;20591;-88
2022/04/07 03:59:57;;;;;;;4.27;1.40;;;10.50;99.90;;;;;;6221118;23;20153;-88
2022/04/07 04:02:22;;;;;;;3.67;1.50;;;10.40;99.90;;;;;;6220819;23;20146;-87
2022/04/07 04:04:48;;;;;;;3.83;1.90;;;10.30;99.90;;;;;;6220846;23;20202;-87
2022/04/07 04:07:14;;;;;;;6.10;1.90;;;10.30;99.90;;;;;;6221015;23;20187;-87
2022/04/07 04:09:39;;;;;;;3.07;2.20;;;10.30;99.90;;;;;;6221180;23;20144;-88
2022/04/07 04:12:06;;;;;;;5.87;2.40;;;10.30;99.90;;;;;;6220148;23;20161;-87
2022/04/07 04:14:31;;;;;;;7.93;2.90;;;10.40;99.90;;;;;;6220993;23;20157;-87
2022/04/07 04:16:57;;;;;;;4.47;2.23;;;10.40;99.90;;;;;;6220761;23;20173;-86
2022/04/07 04:19:23;;;;;;;8.17;2.80;;;10.40;99.90;;;;;;6221375;23;20150;-88
2022/04/07 04:21:49;;;;;;;6.13;2.60;;;10.40;99.90;;;;;;6221175;23;20151;-88
2022/04/07 04:24:14;;;;;;;6.43;2.73;;;10.50;99.90;;;;;;6220865;23;20158;-87
2022/04/07 04:26:40;;;;;;;8.83;2.70;;;10.50;99.90;;;;;;6219512;23;20196;-87
2022/04/07 04:29:06;;;;;;;5.43;2.53;;;10.40;99.90;;;;;;6220289;23;20147;-88
2022/04/07 04:31:32;;;;;;;8.13;2.70;;;10.40;99.90;;;;;;6221008;23;20158;-87
2022/04/07 04:33:59;;;;;;;7.67;2.67;;;10.30;99.90;;;;;;6220784;23;20153;-87
2022/04/07 04:36:25;;;;;;;9.50;3.07;;;10.20;99.90;;;;;;6221221;23;20253;-87
2022/04/07 04:38:50;;;;;;;10.57;2.97;;;10.20;99.90;;;;;;6221379;23;20478;-88
2022/04/07 04:41:16;;;;;;;11.13;2.70;;;10.30;99.90;;;;;;6220438;23;20162;-88
2022/04/07 04:43:42;;;;;;;10.20;2.80;;;10.20;99.90;;;;;;6220688;23;20247;-87
2022/04/07 04:46:08;;;;;;;9.03;3.77;;;10.20;99.90;;;;;;6220337;23;20631;-88
2022/04/07 04:48:34;;;;;;;7.37;2.37;;;10.20;99.90;;;;;;6220513;23;20570;-88
2022/04/07 04:51:00;;;;;;;7.67;2.77;;;10.30;99.90;;;;;;6220628;22;20567;-88
2022/04/07 04:53:26;;;;;;;8.20;2.70;;;10.40;99.90;;;;;;6220743;23;20236;-88
2022/04/07 04:55:51;;;;;;;9.93;3.20;;;10.30;99.90;;;;;;6220711;23;20163;-88
2022/04/07 04:58:17;;;;;;;8.33;2.80;;;10.20;99.90;;;;;;6220918;23;20226;-88
2022/04/07 05:00:43;;;;;;;10.73;2.97;;;10.10;99.90;;;;;;6220797;23;20154;-88
2022/04/07 05:03:09;;;;;;;6.43;2.37;;;10.10;99.90;;;;;;6218815;23;20143;-89
2022/04/07 05:05:35;;;;;;;7.17;2.17;;;10.20;99.90;;;;;;6220184;23;20181;-89
2022/04/07 05:08:01;;;;;;;9.23;3.70;;;10.30;99.90;;;;;;6220603;23;20205;-91
2022/04/07 05:10:27;;;;;;;6.67;4.17;;;10.30;99.90;;;;;;6220406;23;20153;-89
2022/04/07 05:12:52;;;;;;;7.63;2.30;;;10.30;99.90;;;;;;6219693;23;20151;-88
2022/04/07 05:15:19;;;;;;;7.60;3.10;;;10.30;99.90;;;;;;6220671;23;20243;-89
2022/04/07 05:17:51;;;;;;;12.43;2.13;;;10.40;99.90;;;;;;6220318;23;20182;-88
2022/04/07 05:20:17;;;;;;;7.07;2.27;;;10.50;99.90;;;;;;6219193;23;20155;-88
2022/04/07 05:22:44;;;;;;;4.80;1.87;;;10.50;99.90;;;;;;6220239;23;20216;-88
2022/04/07 05:25:10;;;;;;;7.90;2.13;;;10.40;99.90;;;;;;6219539;23;20158;-87
2022/04/07 05:27:37;;;;;;;9.70;2.10;;;10.50;99.90;;;;;;6219682;23;20172;-87
2022/04/07 05:30:12;;;;;;;9.03;2.20;;;10.50;99.90;;;;;;6220343;23;20174;-87
2022/04/07 05:32:38;;;;;;;6.10;2.47;;;10.60;99.90;;;;;;6219555;23;20161;-86
2022/04/07 05:35:05;;;;;;;12.73;2.87;;;10.50;99.90;;;;;;6220081;23;20181;-87
2022/04/07 05:37:30;;;;;;;10.37;3.17;;;10.50;99.90;;;;;;6220363;23;20154;-86
2022/04/07 05:39:56;;;;;;;9.53;2.77;;;10.60;99.90;;;;;;6218980;23;20576;-86
2022/04/07 05:42:21;;;;;;;8.60;2.80;;;10.70;99.90;;;;;;6219607;23;20238;-89
2022/04/07 05:44:47;;;;;;;4.70;2.20;;;10.60;99.90;;;;;;6220763;23;20229;-88
2022/04/07 05:47:13;;;;;;;6.67;2.60;;;10.60;99.90;;;;;;6220310;23;20220;-88
2022/04/07 05:49:38;;;;;;;5.33;1.60;;;10.60;99.90;;;;;;6219982;23;20574;-87
2022/04/07 05:52:05;;;;;;;7.57;1.50;;;10.70;99.90;;;;;;6218976;23;20178;-87
2022/04/07 05:54:31;;;;;;;3.47;1.40;;;10.70;99.90;;;;;;6218821;23;20143;-87
2022/04/07 05:56:58;;;;;;;6.27;1.80;;;10.70;99.90;;;;;;6219166;23;20207;-87
2022/04/07 05:59:23;;;;;;;4.33;1.60;;;10.50;99.90;;;;;;6219989;23;20205;-88
2022/04/07 06:01:49;;;;;;;5.67;1.50;;;10.50;99.90;;;;;;6219997;23;20224;-88
2022/04/07 06:04:15;;;;;;;6.83;2.20;;;10.60;99.90;;;;;;6220272;23;20159;-88
2022/04/07 06:06:40;;;;;;;7.63;2.27;;;10.50;99.90;;;;;;6220160;23;20222;-88
2022/04/07 06:09:06;;;;;;;4.10;1.60;;;10.60;99.90;;;;;;6219312;23;20465;-88
2022/04/07 06:11:32;;;;;;;5.63;2.17;;;10.60;99.90;;;;;;6219777;23;20143;-88
2022/04/07 06:13:58;;;;;;;6.43;1.90;;;10.60;99.90;;;;;;6218821;23;20155;-88
2022/04/07 06:16:23;;;;;;;9.07;3.20;;;10.50;99.90;;;;;;6220228;23;20148;-88
2022/04/07 06:18:51;;;;;;;7.97;2.60;;;10.50;99.90;;;;;;6219341;23;20530;-88
2022/04/07 06:21:16;;;;;;;5.57;3.23;;;10.40;99.90;;;;;;6218587;23;20155;-88
2022/04/07 06:23:42;;;;;;;5.50;3.10;;;10.40;99.90;;;;;;6219689;23;20264;-91
2022/04/07 06:26:08;;;;;;;5.43;3.67;;;10.30;99.90;;;;;;6219592;23;20525;-91
2022/04/07 06:28:33;;;;;;;7.87;4.47;;;10.40;99.90;;;;;;6219656;23;20163;-90
2022/04/07 06:30:59;;;;;;;7.77;3.30;;;10.40;99.90;;;;;;6219484;23;20151;-90
2022/04/07 06:33:25;;;;;;;7.97;4.40;;;10.60;99.90;;;;;;6219741;23;20161;-90
2022/04/07 06:35:51;;;;;;;6.37;3.40;;;10.50;99.90;;;;;;6219567;23;20154;-90
2022/04/07 06:38:18;;;;;;;9.13;4.23;;;10.50;99.90;;;;;;6219624;23;20232;-90
2022/04/07 06:40:45;;;;;;;5.47;2.67;;;10.60;99.90;;;;;;6218772;23;20154;-88
2022/04/07 06:43:11;;;;;;;5.70;2.50;;;10.70;99.90;;;;;;6219569;23;20154;-91
2022/04/07 06:45:36;;;;;;;5.33;2.70;;;10.70;99.90;;;;;;6219113;23;20175;-90
2022/04/07 06:48:02;;;;;;;7.97;2.93;;;10.70;99.90;;;;;;6219534;23;20281;-88
2022/04/07 06:50:28;;;;;;;6.77;2.97;;;10.80;99.90;;;;;;6219028;23;20285;-89
2022/04/07 06:52:56;;;;;;;8.00;2.90;;;10.80;99.90;;;;;;6218645;23;20573;-90
2022/04/07 06:55:22;;;;;;;5.53;3.17;;;10.80;99.90;;;;;;6219325;23;20175;-87
2022/04/07 06:57:58;;;;;;;7.93;3.13;;;10.80;99.90;;;;;;6219428;23;20550;-90
2022/04/07 07:00:26;;;;;;;6.50;2.57;;;10.80;99.90;;;;;;6218739;23;20372;-87
2022/04/07 07:02:53;;;;;;;5.90;3.07;;;10.90;99.90;;;;;;6219390;23;20146;-87
2022/04/07 07:05:20;;;;;;;5.57;2.30;;;10.90;99.90;;;;;;6218677;23;20163;-88
2022/04/07 07:07:46;;;;;;;5.83;2.93;;;11.00;99.90;;;;;;6219641;23;20158;-88
2022/04/07 07:10:12;;;;;;;7.97;3.93;;;11.00;99.90;;;;;;6219323;23;20147;-88
2022/04/07 07:12:39;;;;;;;5.83;2.47;;;11.00;99.90;;;;;;6221011;23;20150;-95
2022/04/07 07:15:05;;;;;;;4.97;1.83;;;11.10;99.90;;;;;;6221003;23;20557;-93
2022/04/07 07:17:33;;;;;;;2.30;1.83;;;11.10;99.90;;;;;;6221207;23;20156;-95
2022/04/07 07:20:04;;;;;;;4.37;1.87;;;11.20;99.90;;;;;;6224496;23;20151;-96
2022/04/07 07:22:30;;;;;;;4.50;1.60;;;11.20;99.90;;;;;;6220345;23;20592;-93
2022/04/07 07:24:58;;;;;;;3.00;1.80;;;11.10;99.90;;;;;;6226699;23;20155;-94
2022/04/07 07:27:24;;;;;;;3.30;1.50;;;11.10;99.90;;;;;;6226747;23;20203;-93
2022/04/07 07:29:50;;;;;;;3.10;1.87;;;11.00;99.90;;;;;;6229350;23;20144;-96
2022/04/07 07:32:16;;;;;;;2.47;1.83;;;11.00;99.90;;;;;;6238548;23;20147;-95
2022/04/07 07:34:42;;;;;;;3.17;1.43;;;10.90;99.90;;;;;;6229627;23;20159;-96
2022/04/07 07:37:07;;;;;;;3.13;2.20;;;11.00;99.90;;;;;;6221317;23;20147;-93
2022/04/07 07:39:33;;;;;;;4.93;1.73;;;11.00;99.90;;;;;;6220687;23;20184;-93
2022/04/07 07:41:58;;;;;;;4.60;2.47;;;10.90;99.90;;;;;;6223356;23;20152;-92
2022/04/07 07:44:24;;;;;;;4.07;2.57;;;10.90;99.90;;;;;;6222054;23;20158;-93
2022/04/07 07:46:50;;;;;;;4.73;2.97;;;11.00;99.90;;;;;;6221247;23;20657;-95
2022/04/07 07:49:16;;;;;;;5.53;2.23;;;11.10;99.90;;;;;;6221749;23;20154;-94
2022/04/07 07:51:42;;;;;;;3.57;1.30;;;11.10;99.90;;;;;;6228955;23;20195;-94
2022/04/07 07:54:08;;;;;;;4.07;3.17;;;11.20;99.90;;;;;;6232498;23;20178;-96
2022/04/07 07:56:34;;;;;;;2.40;1.97;;;11.20;99.90;;;;;;6238097;23;20218;-93
2022/04/07 07:58:59;;;;;;;4.87;2.70;;;11.20;99.90;;;;;;6245587;23;20163;-94
2022/04/07 08:01:26;;;;;;;5.67;2.70;;;11.30;99.90;;;;;;6241544;23;20193;-93
2022/04/07 08:03:52;;;;;;;4.47;1.70;;;11.40;99.90;;;;;;6229607;23;20159;-93
2022/04/07 08:06:18;;;;;;;5.60;2.37;;;11.30;99.90;;;;;;6226432;23;20183;-90
2022/04/07 08:08:44;;;;;;;10.10;1.70;;;11.20;99.90;;;;;;6221814;23;20238;-93
2022/04/07 08:11:10;;;;;;;48.33;3.93;;;11.00;99.90;;;;;;6221130;23;20493;-94
2022/04/07 08:13:36;;;;;;;2.97;1.77;;;11.00;99.90;;;;;;6220869;23;20151;-90
2022/04/07 08:16:02;;;;;;;2.53;1.47;;;10.70;99.90;;;;;;6220611;23;20158;-89
2022/04/07 08:18:27;;;;;;;8.73;2.00;;;10.60;99.90;;;;;;6220393;23;20238;-89
2022/04/07 08:51:28;;;;;;;3.03;1.60;;;10.10;99.90;;;;;;6187308;23;20214;-84
2022/04/07 08:53:54;;;;;;;2.90;1.30;;;10.30;99.90;;;;;;6240968;23;20230;-85
2022/04/07 08:56:20;;;;;;;2.80;1.30;;;10.10;99.90;;;;;;6215292;23;20659;-87
2022/04/07 08:58:45;;;;;;;3.17;2.30;;;10.10;99.90;;;;;;6216336;23;20148;-84
2022/04/07 09:01:12;;;;;;;6.63;2.83;;;10.10;99.90;;;;;;6216201;23;20647;-84
2022/04/07 09:03:37;;;;;;;3.57;1.40;;;10.20;99.90;;;;;;6215366;23;20579;-84
2022/04/07 09:06:03;;;;;;;6.63;3.40;;;10.20;99.90;;;;;;6215267;23;20194;-85
2022/04/07 09:08:31;;;;;;;5.20;3.70;;;10.20;99.90;;;;;;6215158;23;20150;-87
2022/04/07 09:10:58;;;;;;;3.00;1.50;;;10.30;99.90;;;;;;6240534;23;20162;-85
2022/04/07 09:13:26;;;;;;;4.90;3.10;;;10.40;99.90;;;;;;6215179;23;20162;-86
2022/04/07 09:15:52;;;;;;;6.57;2.37;;;10.60;99.90;;;;;;6215222;23;20206;-85
2022/04/07 09:18:25;;;;;;;4.47;1.30;;;10.70;99.90;;;;;;6214894;23;20150;-86
2022/04/07 09:20:51;;;;;;;2.47;1.50;;;10.70;99.90;;;;;;6215127;23;20164;-86
2022/04/07 09:23:17;;;;;;;4.13;1.53;;;10.90;99.90;;;;;;6215219;23;20155;-86
2022/04/07 09:25:50;;;;;;;4.20;1.73;;;10.80;99.90;;;;;;6215009;23;20210;-86
2022/04/07 09:28:32;;;;;;;5.53;1.53;;;10.80;99.90;;;;;;6215048;23;20598;-85
2022/04/07 09:30:59;;;;;;;5.57;2.00;;;11.00;99.90;;;;;;6220099;23;20533;-86
2022/04/07 09:33:26;;;;;;;4.13;1.30;;;11.10;99.90;;;;;;6219808;23;20246;-86
2022/04/07 09:36:06;;;;;;;6.20;1.87;;;11.20;99.90;;;;;;6219989;23;20221;-86
2022/04/07 09:38:33;;;;;;;8.20;1.43;;;11.10;99.90;;;;;;6244414;23;20155;-86
2022/04/07 09:41:08;;;;;;;4.67;0.93;;;11.00;99.90;;;;;;6218662;23;20148;-87
2022/04/07 09:43:50;;;;;;;1.80;0.80;;;10.80;99.90;;;;;;6219846;23;20153;-89
2022/04/07 09:46:21;;;;;;;7.57;3.63;;;10.70;99.90;;;;;;6245044;23;20214;-87
2022/04/07 09:49:03;;;;;;;4.27;1.10;;;10.80;99.90;;;;;;6245581;23;20143;-87
2022/04/07 09:51:29;;;;;;;4.20;1.30;;;10.80;99.90;;;;;;6219817;23;20617;-87
2022/04/07 09:53:56;;;;;;;5.60;0.83;;;10.80;99.90;;;;;;6219708;23;20158;-86
2022/04/07 09:56:27;;;;;;;2.83;0.90;;;10.90;99.90;;;;;;6219872;23;20587;-89
2022/04/07 09:58:56;;;;;;;3.67;0.83;;;11.00;99.90;;;;;;6218851;23;20177;-87
2022/04/07 10:01:23;;;;;;;4.73;0.67;;;11.10;99.90;;;;;;6219810;23;20192;-88
2022/04/07 10:03:50;;;;;;;3.40;0.80;;;11.10;99.90;;;;;;6219517;23;20151;-88
2022/04/07 10:06:17;;;;;;;6.43;1.90;;;11.10;99.90;;;;;;6218434;23;20266;-88
2022/04/07 10:08:46;;;;;;;4.60;1.13;;;11.20;99.90;;;;;;6219712;23;20158;-88
2022/04/07 10:11:13;;;;;;;5.90;1.20;;;11.20;99.90;;;;;;6219928;23;20154;-88
2022/04/07 10:13:41;;;;;;;3.97;1.33;;;11.30;99.90;;;;;;6218737;23;20159;-88
2022/04/07 10:16:08;;;;;;;4.73;1.00;;;11.40;99.90;;;;;;6219729;23;20143;-90
2022/04/07 10:18:42;;;;;;;3.17;1.23;;;11.40;99.90;;;;;;6219228;23;20239;-87
2022/04/07 10:21:18;;;;;;;6.60;1.03;;;11.50;99.90;;;;;;6219541;23;20155;-88
2022/04/07 10:24:16;;;;;;;3.93;1.20;;;11.50;99.90;;;;;;6219414;23;20162;-88
2022/04/07 10:26:45;;;;;;;5.93;1.40;;;11.50;99.90;;;;;;6196996;23;20193;-90
2022/04/07 10:29:22;;;;;;;7.20;1.03;;;11.60;99.90;;;;;;6220141;23;20147;-90
2022/04/07 10:32:12;;;;;;;8.90;1.80;;;11.60;99.90;;;;;;6219982;23;20159;-89
2022/04/07 10:34:58;;;;;;;9.17;1.47;;;11.80;99.90;;;;;;6240467;23;20182;-89
2022/04/07 10:37:40;;;;;;;5.73;1.30;;;12.00;99.90;;;;;;6217957;23;20166;-90
2022/04/07 10:40:35;;;;;;;5.57;1.47;;;12.10;99.90;;;;;;6219049;23;20245;-90
2022/04/07 10:43:25;;;;;;;5.00;1.30;;;12.20;99.90;;;;;;6218837;23;20475;-90
2022/04/07 10:46:11;;;;;;;5.33;1.00;;;12.50;99.90;;;;;;6219829;23;20186;-90
2022/04/07 10:48:50;;;;;;;6.13;1.33;;;12.60;99.90;;;;;;6219572;23;20188;-90
2022/04/07 10:51:16;;;;;;;5.97;1.63;;;12.80;99.90;;;;;;6219372;23;20185;-89
2022/04/07 10:53:51;;;;;;;7.93;1.80;;;13.00;99.90;;;;;;6218628;23;20152;-90
2022/04/07 10:56:34;;;;;;;5.77;1.20;;;13.10;99.90;;;;;;6219308;23;20154;-89
2022/04/07 10:59:22;;;;;;;6.90;1.27;;;13.20;99.90;;;;;;6218961;23;20146;-90
2022/04/07 11:01:58;;;;;;;4.93;1.33;;;13.30;99.90;;;;;;6219081;23;20155;-90
2022/04/07 11:04:23;;;;;;;10.17;1.30;;;13.50;99.90;;;;;;6218705;23;20151;-90
2022/04/07 11:07:07;;;;;;;5.83;1.13;;;13.90;99.90;;;;;;6244466;23;20621;-92
2022/04/07 11:09:45;;;;;;;6.20;1.30;;;13.80;99.90;;;;;;6220104;23;20151;-90
2022/04/07 11:12:25;;;;;;;5.73;1.40;;;14.20;99.90;;;;;;6219706;23;20154;-90
2022/04/07 11:15:32;;;;;;;5.27;1.30;;;14.50;99.30;;;;;;6219158;23;20167;-90
2022/04/07 11:18:39;;;;;;;3.50;0.90;;;15.30;98.20;;;;;;6242721;23;20161;-89
2022/04/07 11:21:10;;;;;;;4.00;1.20;;;15.60;96.20;;;;;;6217906;23;20605;-90
2022/04/07 11:23:43;;;;;;;4.87;1.00;;;15.90;94.90;;;;;;6218649;23;20153;-90
2022/04/07 11:26:10;;;;;;;8.20;1.63;;;15.50;94.80;;;;;;6218425;23;20182;-90
2022/04/07 11:28:37;;;;;;;9.90;1.50;;;15.20;94.70;;;;;;6219460;23;20238;-90
2022/04/07 11:31:04;;;;;;;7.87;1.40;;;15.10;95.20;;;;;;6218890;23;20173;-90
2022/04/07 11:33:40;;;;;;;8.53;1.37;;;15.10;94.10;;;;;;6217620;23;20150;-90
2022/04/07 11:36:12;;;;;;;7.47;1.27;;;15.60;93.60;;;;;;6218179;23;20162;-90
2022/04/07 11:38:48;;;;;;;6.97;1.50;;;16.40;92.90;;;;;;6218353;23;20237;-91
2022/04/07 11:41:14;;;;;;;8.77;1.73;;;16.50;92.30;;;;;;6218635;23;20149;-92
2022/04/07 11:43:42;;;;;;;5.93;1.30;;;16.10;93.20;;;;;;6218419;23;20210;-90
2022/04/07 11:46:09;;;;;;;7.23;1.40;;;16.20;93.30;;;;;;6218926;23;20183;-90
2022/04/07 11:48:37;;;;;;;5.63;1.17;;;16.60;93.10;;;;;;6217958;23;20148;-90
2022/04/07 11:51:11;;;;;;;8.33;1.90;;;17.10;91.80;;;;;;6217571;23;20206;-89
2022/04/07 11:53:44;;;;;;;8.20;1.57;;;18.00;90.90;;;;;;6218523;23;20154;-90
2022/04/07 11:56:20;;;;;;;8.93;1.50;;;18.60;90.60;;;;;;6217837;23;20143;-90
2022/04/07 11:59:00;;;;;;;8.37;1.40;;;17.90;90.00;;;;;;6218636;23;20153;-89
2022/04/07 12:01:28;;;;;;;7.07;1.50;;;16.40;91.90;;;;;;6242969;23;20157;-89
2022/04/07 12:03:55;;;;;;;8.80;1.80;;;16.40;92.30;;;;;;6219218;23;20146;-89
2022/04/07 12:06:24;;;;;;;8.50;1.40;;;16.70;91.90;;;;;;6217581;23;20186;-89
2022/04/07 12:08:51;;;;;;;7.90;1.90;;;17.10;91.70;;;;;;6219208;23;20587;-89
2022/04/07 12:11:20;;;;;;;10.80;1.80;;;16.40;91.00;;;;;;6218706;23;20178;-89
2022/04/07 12:13:49;;;;;;;10.50;2.47;;;15.40;92.30;;;;;;6218528;23;20597;-88
2022/04/07 12:16:14;;;;;;;10.50;2.00;;;14.40;93.50;;;;;;6219300;23;20155;-89
2022/04/07 12:18:40;;;;;;;12.20;2.67;;;14.30;94.30;;;;;;6219975;23;20607;-89
2022/04/07 12:21:06;;;;;;;8.90;1.87;;;14.40;94.10;;;;;;6220205;23;20661;-88
2022/04/07 12:23:32;;;;;;;9.67;1.87;;;14.30;93.70;;;;;;6220294;23;20155;-89
2022/04/07 12:26:00;;;;;;;14.67;2.00;;;14.20;94.10;;;;;;6220455;23;20187;-90
2022/04/07 12:28:38;;;;;;;8.33;2.03;;;14.30;94.00;;;;;;6220422;23;20149;-90
2022/04/07 12:31:09;;;;;;;13.57;2.07;;;14.70;93.70;;;;;;6220378;23;20217;-89
2022/04/07 12:33:41;;;;;;;8.40;1.73;;;14.50;94.20;;;;;;6220389;23;20208;-89
2022/04/07 12:36:08;;;;;;;13.13;2.00;;;14.30;94.00;;;;;;6220398;23;20160;-89
2022/04/07 12:38:34;;;;;;;8.40;2.13;;;14.50;94.20;;;;;;6220314;23;20146;-89
2022/04/07 12:41:16;;;;;;;8.43;1.70;;;14.50;94.10;;;;;;6220572;23;20154;-89
2022/04/07 12:43:50;;;;;;;12.37;2.23;;;14.30;94.00;;;;;;6220082;23;20159;-90
2022/04/07 12:46:17;;;;;;;13.47;2.40;;;14.10;93.50;;;;;;6220460;23;20624;-89
2022/04/07 12:49:22;;;;;;;10.00;1.87;;;14.20;93.70;;;;;;6218424;23;20151;-89
2022/04/07 12:52:00;;;;;;;12.23;2.20;;;13.70;94.40;;;;;;6123083;23;20197;-89
2022/04/07 12:54:26;;;;;;;11.13;1.97;;;13.40;94.90;;;;;;6233862;23;20531;-87
2022/04/07 12:57:13;;;;;;;10.50;2.20;;;13.50;95.00;;;;;;6220958;23;20147;-88
2022/04/07 12:59:56;;;;;;;13.40;2.20;;;14.00;94.80;;;;;;6219557;23;20143;-88
2022/04/07 13:02:22;;;;;;;9.60;2.00;;;13.90;94.00;;;;;;6220722;23;20179;-88
2022/04/07 13:04:50;;;;;;;8.30;2.07;;;13.60;94.40;;;;;;6220807;23;20536;-87
2022/04/07 13:07:17;;;;;;;6.43;1.97;;;14.10;93.80;;;;;;6220859;23;20180;-89
2022/04/07 13:09:43;;;;;;;6.33;1.77;;;14.70;92.70;;;;;;6221097;23;20144;-89
2022/04/07 13:12:15;;;;;;;9.73;1.93;;;14.70;92.40;;;;;;6221069;23;20692;-89
2022/04/07 13:14:42;;;;;;;8.53;1.70;;;15.00;91.80;;;;;;6247062;23;20145;-88
2022/04/07 13:17:09;;;;;;;8.97;2.00;;;15.20;91.90;;;;;;6230914;23;20149;-89
2022/04/07 13:19:36;;;;;;;8.43;2.10;;;14.80;92.10;;;;;;6225460;23;20158;-89
2022/04/07 13:22:02;;;;;;;10.57;2.13;;;14.30;93.00;;;;;;6221061;23;20171;-90
2022/04/07 13:24:28;;;;;;;10.27;2.30;;;14.00;93.10;;;;;;6223349;23;20640;-88